Time;durP1;ratioP1;P1;durP2;ratioP2;P2;SDS_P1;SDS_P2;PMS_P1;PMS_P2;Temp;Humidity;BMP_temperature;BMP_pressure;BME280_temperature;BME280_humidity;BME280_pressure;Samples;Min_cycle;Max_cycle;Signal;HPM_P1;HPM_P2
2024/01/16 00:00:33;;;;;;;10.23;7.90;;;;;;;;;;5004150;28;20037;-55
2024/01/16 00:02:58;;;;;;;11.10;8.23;;;;;;;;;;5014099;28;20033;-57
2024/01/16 00:05:24;;;;;;;9.93;8.15;;;;;;;;;;5011932;28;20033;-56
2024/01/16 00:07:49;;;;;;;10.60;7.78;;;;;;;;;;5007086;23;20278;-60
2024/01/16 00:10:14;;;;;;;10.40;7.80;;;;;;;;;;5035534;28;20036;-54
2024/01/16 00:12:41;;;;;;;10.45;8.00;;;;;;;;;;5039307;28;20041;-56
2024/01/16 00:15:06;;;;;;;8.98;7.43;;;;;;;;;;5035892;28;20108;-56
2024/01/16 00:17:31;;;;;;;9.80;7.70;;;;;;;;;;5012302;28;20111;-59
2024/01/16 00:20:00;;;;;;;9.82;7.53;;;;;;;;;;5035591;28;20041;-54
2024/01/16 00:22:26;;;;;;;9.70;7.30;;;;;;;;;;5049449;23;20080;-61
2024/01/16 00:24:51;;;;;;;10.27;8.02;;;;;;;;;;4995317;28;20068;-59
2024/01/16 00:27:17;;;;;;;10.77;7.80;;;;;;;;;;4990475;28;20633;-61
2024/01/16 00:29:42;;;;;;;8.95;7.35;;;;;;;;;;5001055;28;20060;-61
2024/01/16 00:32:08;;;;;;;8.77;7.28;;;;;;;;;;5027913;28;20611;-63
2024/01/16 00:34:33;;;;;;;9.38;7.43;;;;;;;;;;5010812;28;20511;-61
2024/01/16 00:36:59;;;;;;;9.73;7.20;;;;;;;;;;5015749;28;20078;-61
2024/01/16 00:39:24;;;;;;;9.45;7.53;;;;;;;;;;5029096;28;20119;-60
2024/01/16 00:41:49;;;;;;;9.57;7.00;;;;;;;;;;4995153;28;20166;-61
2024/01/16 00:44:14;;;;;;;9.85;7.65;;;;;;;;;;5021397;28;20041;-61
2024/01/16 00:46:40;;;;;;;10.98;7.90;;;;;;;;;;5029268;28;20041;-61
2024/01/16 00:49:07;;;;;;;9.38;7.38;;;;;;;;;;5032079;28;20626;-60
2024/01/16 00:51:32;;;;;;;9.07;7.40;;;;;;;;;;5036249;28;20041;-60
2024/01/16 00:53:58;;;;;;;9.35;7.03;;;;;;;;;;5033225;28;20029;-61
2024/01/16 00:56:23;;;;;;;9.70;7.72;;;;;;;;;;5015828;28;20501;-60
2024/01/16 00:58:48;;;;;;;8.90;7.07;;;;;;;;;;4981893;28;20041;-60
2024/01/16 01:01:13;;;;;;;8.57;6.60;;;;;;;;;;5021742;28;20037;-61
2024/01/16 01:03:39;;;;;;;9.68;7.30;;;;;;;;;;4992818;28;20029;-61
2024/01/16 01:06:04;;;;;;;8.35;6.68;;;;;;;;;;5026150;28;20126;-61
2024/01/16 01:08:30;;;;;;;8.85;7.03;;;;;;;;;;5024345;28;20037;-61
2024/01/16 01:10:55;;;;;;;8.85;6.95;;;;;;;;;;5030964;28;20561;-62
2024/01/16 01:13:20;;;;;;;9.48;7.32;;;;;;;;;;5014355;28;20499;-62
2024/01/16 01:15:46;;;;;;;8.98;7.38;;;;;;;;;;5019286;28;20523;-62
2024/01/16 01:18:11;;;;;;;8.50;6.70;;;;;;;;;;5023922;28;20032;-62
2024/01/16 01:23:11;;;;;;;9.10;7.32;;;;;;;;;;1355489;23;20584;-60
2024/01/16 01:25:37;;;;;;;8.77;6.80;;;;;;;;;;4974544;28;20042;-60
2024/01/16 01:28:02;;;;;;;9.38;7.00;;;;;;;;;;5053189;23;20029;-59
2024/01/16 01:30:27;;;;;;;9.98;6.75;;;;;;;;;;5012622;28;20168;-55
2024/01/16 01:32:53;;;;;;;8.02;6.18;;;;;;;;;;5015750;28;20034;-57
2024/01/16 01:35:19;;;;;;;8.45;6.82;;;;;;;;;;5017383;28;20140;-57
2024/01/16 01:37:45;;;;;;;7.78;6.38;;;;;;;;;;5017532;28;20359;-57
2024/01/16 01:40:12;;;;;;;8.90;7.03;;;;;;;;;;5018675;28;20076;-56
2024/01/16 01:42:37;;;;;;;8.80;6.80;;;;;;;;;;5009741;28;20052;-55
2024/01/16 01:45:03;;;;;;;10.10;7.10;;;;;;;;;;4997994;28;20038;-55
2024/01/16 01:47:29;;;;;;;7.70;6.22;;;;;;;;;;5018777;28;20044;-56
2024/01/16 01:49:55;;;;;;;8.75;6.72;;;;;;;;;;5003681;28;20057;-55
2024/01/16 01:52:20;;;;;;;7.85;6.13;;;;;;;;;;5007677;28;20095;-55
2024/01/16 01:54:45;;;;;;;8.18;6.32;;;;;;;;;;5002218;28;20034;-55
2024/01/16 01:57:10;;;;;;;8.60;6.75;;;;;;;;;;5040504;23;20464;-55
2024/01/16 01:59:36;;;;;;;8.35;6.40;;;;;;;;;;5089551;23;20124;-91
2024/01/16 02:02:01;;;;;;;8.52;6.70;;;;;;;;;;5080321;28;20040;-91
2024/01/16 02:04:26;;;;;;;8.43;6.60;;;;;;;;;;5060053;28;20142;-91
2024/01/16 02:06:52;;;;;;;7.28;5.70;;;;;;;;;;5068698;28;20036;-90
2024/01/16 02:09:17;;;;;;;7.82;6.18;;;;;;;;;;5060036;28;20051;-90
2024/01/16 02:11:43;;;;;;;7.78;6.65;;;;;;;;;;5070168;28;20052;-89
2024/01/16 02:14:08;;;;;;;8.25;6.10;;;;;;;;;;5055327;28;20044;-91
2024/01/16 02:23:37;;;;;;;8.02;6.15;;;;;;;;;;5003094;28;20047;-59
2024/01/16 05:53:32;;;;;;;4.10;2.95;;;;;;;;;;5048180;28;20532;-59
2024/01/16 05:55:57;;;;;;;3.90;2.85;;;;;;;;;;5028224;28;20053;-56
2024/01/16 05:58:23;;;;;;;4.75;3.50;;;;;;;;;;5045309;28;20029;-56
2024/01/16 06:00:48;;;;;;;4.35;3.55;;;;;;;;;;5028541;28;20040;-58
2024/01/16 06:03:13;;;;;;;3.72;2.90;;;;;;;;;;5044842;28;20394;-57
2024/01/16 06:05:39;;;;;;;4.13;3.10;;;;;;;;;;5036701;28;20029;-56
2024/01/16 06:08:04;;;;;;;3.92;3.00;;;;;;;;;;5037104;28;20512;-56
2024/01/16 06:10:29;;;;;;;3.58;3.08;;;;;;;;;;5038611;28;20041;-57
2024/01/16 06:12:55;;;;;;;4.03;3.00;;;;;;;;;;5038603;28;20061;-58
2024/01/16 06:15:20;;;;;;;3.45;2.65;;;;;;;;;;5039487;28;20032;-56
2024/01/16 06:17:45;;;;;;;3.92;3.00;;;;;;;;;;5038034;28;20493;-58
2024/01/16 06:20:11;;;;;;;4.93;2.33;;;;;;;;;;5035707;28;20040;-57
2024/01/16 06:22:36;;;;;;;3.42;2.63;;;;;;;;;;5037027;28;20063;-55
2024/01/16 06:25:02;;;;;;;3.28;2.70;;;;;;;;;;5037565;28;20037;-55
2024/01/16 06:27:27;;;;;;;3.40;2.58;;;;;;;;;;5037593;28;20113;-54
2024/01/16 06:29:52;;;;;;;3.75;2.83;;;;;;;;;;5037080;28;20060;-56
2024/01/16 06:32:18;;;;;;;3.50;2.72;;;;;;;;;;5035817;28;20120;-58
2024/01/16 06:34:43;;;;;;;3.58;2.40;;;;;;;;;;5037509;28;20112;-55
2024/01/16 06:37:08;;;;;;;3.53;2.55;;;;;;;;;;5038741;28;20498;-55
2024/01/16 06:39:34;;;;;;;3.53;2.60;;;;;;;;;;5033778;28;20517;-58
2024/01/16 06:41:59;;;;;;;3.38;2.60;;;;;;;;;;5036389;28;20048;-57
2024/01/16 06:44:25;;;;;;;3.67;2.90;;;;;;;;;;5033439;28;20044;-59
2024/01/16 06:46:50;;;;;;;3.35;2.67;;;;;;;;;;5037947;28;20025;-58
2024/01/16 06:49:15;;;;;;;4.18;2.33;;;;;;;;;;5038008;28;20044;-60
2024/01/16 06:51:41;;;;;;;4.03;2.50;;;;;;;;;;5038084;28;22422;-59
2024/01/16 06:54:06;;;;;;;3.85;2.30;;;;;;;;;;5047768;28;20045;-55
2024/01/16 06:56:32;;;;;;;3.35;2.33;;;;;;;;;;5049171;28;20398;-60
2024/01/16 06:58:57;;;;;;;3.53;2.40;;;;;;;;;;5053567;28;20049;-59
2024/01/16 07:04:25;;;;;;;2.97;2.15;;;;;;;;;;5042307;22;20559;-61
2024/01/16 07:06:51;;;;;;;3.08;2.10;;;;;;;;;;5062174;28;20037;-61
2024/01/16 07:09:18;;;;;;;3.10;2.30;;;;;;;;;;5061813;28;20050;-61
2024/01/16 07:11:43;;;;;;;2.83;2.20;;;;;;;;;;5060535;28;20032;-60
2024/01/16 07:14:09;;;;;;;3.28;2.38;;;;;;;;;;5067192;28;20043;-61
2024/01/16 07:16:34;;;;;;;4.43;2.15;;;;;;;;;;5007740;28;20036;-60
2024/01/16 07:18:59;;;;;;;3.70;2.25;;;;;;;;;;5056399;28;20564;-61
2024/01/16 07:21:25;;;;;;;3.45;2.20;;;;;;;;;;5052237;28;20028;-61
2024/01/16 07:23:50;;;;;;;2.35;1.80;;;;;;;;;;5085755;22;20103;-60
2024/01/16 07:26:16;;;;;;;3.33;2.17;;;;;;;;;;5046154;28;20159;-62
2024/01/16 07:28:41;;;;;;;2.97;1.95;;;;;;;;;;5031149;28;20032;-60
2024/01/16 07:31:09;;;;;;;3.35;2.05;;;;;;;;;;5052806;28;20064;-60
2024/01/16 07:33:34;;;;;;;3.03;1.90;;;;;;;;;;5060294;28;20051;-60
2024/01/16 07:36:00;;;;;;;2.67;1.80;;;;;;;;;;5050728;28;20068;-60
2024/01/16 07:38:25;;;;;;;2.60;1.75;;;;;;;;;;5055905;28;20047;-60
2024/01/16 07:40:50;;;;;;;3.03;2.08;;;;;;;;;;5063993;28;20047;-60
2024/01/16 07:46:18;;;;;;;3.75;1.83;;;;;;;;;;5070394;22;20091;-70
2024/01/16 07:48:44;;;;;;;2.83;1.83;;;;;;;;;;5025958;28;20463;-78
2024/01/16 07:51:09;;;;;;;2.38;1.33;;;;;;;;;;5037070;28;20037;-77
2024/01/16 07:53:34;;;;;;;3.05;1.63;;;;;;;;;;5048337;28;20040;-76
2024/01/16 07:56:00;;;;;;;2.80;1.70;;;;;;;;;;5055454;28;20044;-77
2024/01/16 07:58:25;;;;;;;2.58;1.70;;;;;;;;;;5083199;28;20171;-77
2024/01/16 08:00:50;;;;;;;2.70;1.88;;;;;;;;;;5070211;28;20044;-76
2024/01/16 08:03:16;;;;;;;2.80;1.50;;;;;;;;;;5067886;28;20469;-78
2024/01/16 08:05:41;;;;;;;2.40;1.50;;;;;;;;;;5097023;22;20053;-78
2024/01/16 08:08:10;;;;;;;3.30;1.88;;;;;;;;;;5036098;28;20055;-78
2024/01/16 08:10:35;;;;;;;2.60;1.65;;;;;;;;;;5031139;28;20068;-77
2024/01/16 08:13:00;;;;;;;2.40;1.52;;;;;;;;;;5046526;28;20017;-77
2024/01/16 08:15:26;;;;;;;3.65;1.60;;;;;;;;;;5039805;28;20024;-77
2024/01/16 08:17:51;;;;;;;2.28;1.35;;;;;;;;;;5055130;28;20020;-76
2024/01/16 08:20:16;;;;;;;2.75;1.50;;;;;;;;;;5057817;28;20008;-70
2024/01/16 08:22:42;;;;;;;2.05;1.35;;;;;;;;;;5058444;28;20017;-71
2024/01/16 08:25:08;;;;;;;2.15;1.50;;;;;;;;;;5039244;28;20106;-71
2024/01/16 08:27:33;;;;;;;1.48;1.23;;;;;;;;;;5058158;28;20016;-70
2024/01/16 08:29:59;;;;;;;2.30;1.50;;;;;;;;;;5040353;28;20025;-71
2024/01/16 08:32:24;;;;;;;2.03;1.60;;;;;;;;;;5033997;28;20016;-70
2024/01/16 08:34:49;;;;;;;2.53;1.60;;;;;;;;;;5060959;28;20040;-70
2024/01/16 08:37:15;;;;;;;2.55;1.20;;;;;;;;;;5060989;28;20023;-70
2024/01/16 08:39:40;;;;;;;1.60;1.15;;;;;;;;;;5059444;28;20104;-70
2024/01/16 08:42:05;;;;;;;3.35;1.40;;;;;;;;;;5059466;28;20096;-70
2024/01/16 08:44:31;;;;;;;2.33;1.15;;;;;;;;;;5059674;28;20104;-70
2024/01/16 08:46:59;;;;;;;2.10;1.40;;;;;;;;;;5053353;28;20016;-70
2024/01/16 08:49:24;;;;;;;2.25;1.60;;;;;;;;;;5057539;28;20043;-70
2024/01/16 08:51:50;;;;;;;1.77;1.17;;;;;;;;;;5057885;28;20013;-70
2024/01/16 08:54:16;;;;;;;2.65;1.10;;;;;;;;;;5058539;28;20771;-71
2024/01/16 08:56:41;;;;;;;1.90;1.20;;;;;;;;;;5057977;28;20031;-71
2024/01/16 08:59:06;;;;;;;1.98;1.30;;;;;;;;;;5040279;28;20107;-71
2024/01/16 09:01:32;;;;;;;2.45;1.60;;;;;;;;;;5062687;28;20101;-71
2024/01/16 09:03:57;;;;;;;2.13;1.17;;;;;;;;;;5064456;28;20052;-71
2024/01/16 09:06:22;;;;;;;2.05;1.20;;;;;;;;;;5058247;28;20020;-71
2024/01/16 09:08:48;;;;;;;2.38;1.30;;;;;;;;;;5055841;28;20016;-71
2024/01/16 09:11:13;;;;;;;2.20;1.30;;;;;;;;;;5058773;28;20037;-71
2024/01/16 09:13:38;;;;;;;2.22;1.30;;;;;;;;;;5048996;28;20105;-72
2024/01/16 09:16:04;;;;;;;2.03;1.20;;;;;;;;;;5061286;28;20081;-71
2024/01/16 09:18:29;;;;;;;2.05;1.27;;;;;;;;;;5063628;28;20021;-71
2024/01/16 09:20:55;;;;;;;2.42;1.30;;;;;;;;;;5025090;28;21008;-71
2024/01/16 09:23:20;;;;;;;2.30;1.30;;;;;;;;;;5054601;28;20668;-70
2024/01/16 09:25:45;;;;;;;2.47;1.30;;;;;;;;;;5042764;28;20469;-71
2024/01/16 09:28:11;;;;;;;1.58;1.00;;;;;;;;;;5030804;28;20025;-71
2024/01/16 09:30:37;;;;;;;1.50;0.85;;;;;;;;;;5058751;28;20131;-71
2024/01/16 09:33:04;;;;;;;1.60;1.20;;;;;;;;;;5069128;28;20017;-71
2024/01/16 09:35:29;;;;;;;2.35;1.15;;;;;;;;;;5067540;28;20594;-71
2024/01/16 09:37:55;;;;;;;1.50;1.05;;;;;;;;;;5066385;28;20039;-71
2024/01/16 09:40:20;;;;;;;1.77;1.00;;;;;;;;;;5053276;28;20029;-71
2024/01/16 09:42:45;;;;;;;2.45;1.00;;;;;;;;;;5065676;28;20048;-71
2024/01/16 09:45:11;;;;;;;1.88;1.00;;;;;;;;;;5057789;28;20120;-71
2024/01/16 09:47:36;;;;;;;1.88;0.90;;;;;;;;;;5066649;28;20048;-71
2024/01/16 09:50:03;;;;;;;1.80;0.90;;;;;;;;;;5069029;28;20064;-71
2024/01/16 09:52:28;;;;;;;1.80;0.98;;;;;;;;;;5064361;28;20025;-71
2024/01/16 09:54:54;;;;;;;1.30;0.90;;;;;;;;;;5061596;28;20391;-70
2024/01/16 09:57:22;;;;;;;1.95;1.08;;;;;;;;;;5051364;28;20406;-71
2024/01/16 09:59:48;;;;;;;2.22;1.10;;;;;;;;;;5070217;28;20025;-70
2024/01/16 10:02:13;;;;;;;1.77;1.17;;;;;;;;;;5067241;28;20044;-70
2024/01/16 10:04:39;;;;;;;1.65;1.00;;;;;;;;;;5046347;28;20352;-75
2024/01/16 10:07:05;;;;;;;1.70;1.08;;;;;;;;;;5071949;28;20039;-72
2024/01/16 10:09:30;;;;;;;1.25;0.90;;;;;;;;;;5073225;28;20083;-71
2024/01/16 10:11:56;;;;;;;2.63;1.10;;;;;;;;;;5082537;28;20035;-71
2024/01/16 10:14:21;;;;;;;1.40;0.88;;;;;;;;;;5071311;28;20089;-72
2024/01/16 10:16:59;;;;;;;4.30;1.00;;;;;;;;;;5085955;28;20029;-71
2024/01/16 10:19:26;;;;;;;1.20;0.65;;;;;;;;;;5072471;28;20036;-73
2024/01/16 10:21:51;;;;;;;1.80;1.00;;;;;;;;;;5085723;28;20467;-71
2024/01/16 10:24:17;;;;;;;1.40;0.82;;;;;;;;;;5052070;28;20038;-72
2024/01/16 10:26:42;;;;;;;1.83;0.90;;;;;;;;;;5082637;28;20032;-71
2024/01/16 10:29:09;;;;;;;1.83;1.00;;;;;;;;;;5081178;28;20052;-71
2024/01/16 10:31:35;;;;;;;1.55;0.90;;;;;;;;;;5080625;28;20028;-72
2024/01/16 10:34:00;;;;;;;2.10;0.90;;;;;;;;;;5081466;28;20754;-72
2024/01/16 10:36:26;;;;;;;1.98;1.25;;;;;;;;;;5080977;28;20071;-72
2024/01/16 10:38:57;;;;;;;1.65;0.70;;;;;;;;;;5064745;28;20107;-72
2024/01/16 10:41:25;;;;;;;1.23;0.70;;;;;;;;;;5062206;28;20044;-71
2024/01/16 10:43:55;;;;;;;1.65;0.95;;;;;;;;;;5079641;28;20032;-71
2024/01/16 10:46:20;;;;;;;2.28;0.90;;;;;;;;;;5055211;28;20482;-72
2024/01/16 10:48:58;;;;;;;2.15;1.00;;;;;;;;;;5067649;28;20052;-71
2024/01/16 10:51:24;;;;;;;1.95;0.90;;;;;;;;;;5079481;28;20062;-71
2024/01/16 10:53:49;;;;;;;1.10;0.70;;;;;;;;;;5065805;28;20477;-71
2024/01/16 10:56:15;;;;;;;2.00;0.93;;;;;;;;;;5073804;28;20039;-72
2024/01/16 10:58:41;;;;;;;1.48;0.77;;;;;;;;;;5059853;28;20032;-72
2024/01/16 11:01:07;;;;;;;2.42;0.90;;;;;;;;;;5084770;28;20524;-71
2024/01/16 11:03:37;;;;;;;1.98;0.90;;;;;;;;;;5057256;28;20036;-71
2024/01/16 11:06:04;;;;;;;1.10;0.77;;;;;;;;;;5081613;28;20032;-71
2024/01/16 11:08:32;;;;;;;1.58;0.63;;;;;;;;;;5064703;28;20036;-72
2024/01/16 11:10:58;;;;;;;1.27;0.60;;;;;;;;;;5082652;28;20539;-72
2024/01/16 11:13:23;;;;;;;1.55;0.85;;;;;;;;;;5065622;28;20159;-71
2024/01/16 11:15:48;;;;;;;18.13;2.38;;;;;;;;;;5086172;28;20032;-79
2024/01/16 11:18:14;;;;;;;6.95;1.20;;;;;;;;;;5068202;28;20044;-72
2024/01/16 11:20:42;;;;;;;4.13;1.05;;;;;;;;;;5053319;28;20036;-72
2024/01/16 11:23:08;;;;;;;4.93;1.05;;;;;;;;;;5078226;28;20024;-72
2024/01/16 11:25:33;;;;;;;4.40;0.88;;;;;;;;;;5079003;28;20041;-71
2024/01/16 11:28:12;;;;;;;4.45;1.27;;;;;;;;;;5078285;28;20036;-71
2024/01/16 11:30:37;;;;;;;3.90;1.00;;;;;;;;;;5078216;28;20048;-71
2024/01/16 11:33:04;;;;;;;2.75;0.70;;;;;;;;;;5080267;28;20039;-72
2024/01/16 11:35:36;;;;;;;2.15;0.90;;;;;;;;;;5080835;28;20055;-72
2024/01/16 11:38:12;;;;;;;2.30;0.73;;;;;;;;;;5079047;28;20188;-72
2024/01/16 11:40:38;;;;;;;2.00;0.80;;;;;;;;;;5070816;28;20063;-72
2024/01/16 11:43:22;;;;;;;3.47;1.00;;;;;;;;;;5080371;28;20060;-72
2024/01/16 11:45:47;;;;;;;6.25;0.75;;;;;;;;;;5078501;28;20036;-71
2024/01/16 11:48:13;;;;;;;2.20;0.80;;;;;;;;;;5077230;28;20019;-70
2024/01/16 11:50:38;;;;;;;1.60;0.73;;;;;;;;;;5078146;28;20047;-70
2024/01/16 11:53:04;;;;;;;2.50;0.98;;;;;;;;;;5079358;28;20038;-72
2024/01/16 11:55:49;;;;;;;1.85;0.73;;;;;;;;;;5058884;28;20106;-72
2024/01/16 11:58:37;;;;;;;3.03;0.75;;;;;;;;;;5070957;28;20036;-72
2024/01/16 12:01:04;;;;;;;2.42;0.93;;;;;;;;;;5077890;28;20494;-70
2024/01/16 12:03:30;;;;;;;3.22;0.90;;;;;;;;;;5079085;28;20478;-70
2024/01/16 12:05:57;;;;;;;2.35;0.90;;;;;;;;;;5076935;28;20032;-72
2024/01/16 12:08:23;;;;;;;1.88;0.70;;;;;;;;;;5058338;28;20479;-72
2024/01/16 12:10:48;;;;;;;1.50;0.68;;;;;;;;;;5059827;28;20147;-73
2024/01/16 12:13:13;;;;;;;1.80;0.70;;;;;;;;;;5078697;28;20038;-72
2024/01/16 12:15:39;;;;;;;2.47;0.70;;;;;;;;;;5078711;28;20032;-72
2024/01/16 12:18:04;;;;;;;4.32;0.95;;;;;;;;;;5058137;28;20416;-72
2024/01/16 12:20:30;;;;;;;2.70;0.90;;;;;;;;;;5076458;28;20502;-73
2024/01/16 12:23:01;;;;;;;1.63;0.70;;;;;;;;;;5078913;28;20139;-72
2024/01/16 12:25:28;;;;;;;2.35;0.50;;;;;;;;;;5078512;28;20032;-71
2024/01/16 12:27:57;;;;;;;1.92;0.70;;;;;;;;;;5079907;28;20020;-71
2024/01/16 12:30:23;;;;;;;2.78;0.70;;;;;;;;;;5083723;28;20813;-70
2024/01/16 12:32:49;;;;;;;1.88;0.80;;;;;;;;;;5078443;28;20082;-70
2024/01/16 12:35:19;;;;;;;1.40;0.70;;;;;;;;;;5086116;28;20112;-70
2024/01/16 12:37:56;;;;;;;1.40;0.60;;;;;;;;;;5086632;28;20093;-71
2024/01/16 12:40:22;;;;;;;4.60;1.20;;;;;;;;;;5079109;28;20043;-71
2024/01/16 12:42:49;;;;;;;2.45;0.80;;;;;;;;;;5077333;28;20036;-70
2024/01/16 12:45:14;;;;;;;2.75;0.90;;;;;;;;;;5058935;28;20134;-70
2024/01/16 12:47:40;;;;;;;2.17;0.65;;;;;;;;;;5077527;28;20036;-70
2024/01/16 12:50:05;;;;;;;2.67;0.80;;;;;;;;;;5055519;28;20044;-70
2024/01/16 12:52:32;;;;;;;1.67;0.70;;;;;;;;;;5054574;28;20757;-70
2024/01/16 12:55:08;;;;;;;1.60;0.90;;;;;;;;;;5078455;28;20051;-70
2024/01/16 12:57:34;;;;;;;1.70;0.80;;;;;;;;;;5078217;28;20024;-70
2024/01/16 13:00:02;;;;;;;2.40;0.88;;;;;;;;;;5076227;28;20439;-70
2024/01/16 13:02:27;;;;;;;2.30;0.90;;;;;;;;;;5077646;28;20118;-70
2024/01/16 13:04:57;;;;;;;2.00;0.80;;;;;;;;;;5076606;28;20422;-71
2024/01/16 13:07:22;;;;;;;2.10;0.52;;;;;;;;;;5076001;28;20047;-70
2024/01/16 13:09:47;;;;;;;1.95;0.80;;;;;;;;;;5077889;28;20040;-70
2024/01/16 13:12:19;;;;;;;1.60;0.60;;;;;;;;;;5078007;28;20532;-71
2024/01/16 13:14:44;;;;;;;1.02;0.60;;;;;;;;;;5078566;28;20036;-71
2024/01/16 13:17:10;;;;;;;2.67;0.80;;;;;;;;;;5076980;28;20170;-72
2024/01/16 13:19:36;;;;;;;2.17;0.63;;;;;;;;;;5078073;28;20036;-71
2024/01/16 13:22:01;;;;;;;2.13;0.70;;;;;;;;;;5075709;28;20169;-72
2024/01/16 13:24:27;;;;;;;0.90;0.63;;;;;;;;;;5053880;28;20562;-72
2024/01/16 13:26:52;;;;;;;2.25;1.00;;;;;;;;;;5079260;28;20025;-72
2024/01/16 13:29:19;;;;;;;1.35;0.70;;;;;;;;;;5076392;28;20096;-72
2024/01/16 13:31:44;;;;;;;1.27;0.60;;;;;;;;;;5079174;28;20184;-71
2024/01/16 13:34:10;;;;;;;1.27;0.60;;;;;;;;;;5078249;28;20497;-71
2024/01/16 13:36:36;;;;;;;1.70;0.70;;;;;;;;;;5076584;28;20541;-70
2024/01/16 13:39:01;;;;;;;1.27;0.68;;;;;;;;;;5076975;28;20032;-71
2024/01/16 13:41:27;;;;;;;1.55;0.80;;;;;;;;;;5076199;28;20040;-71
2024/01/16 13:43:52;;;;;;;1.77;0.70;;;;;;;;;;5084939;28;20028;-70
2024/01/16 13:46:18;;;;;;;2.22;0.90;;;;;;;;;;5086970;28;20047;-72
2024/01/16 13:48:43;;;;;;;1.65;0.63;;;;;;;;;;5085200;28;20039;-71
2024/01/16 13:51:08;;;;;;;1.00;0.60;;;;;;;;;;5082999;28;20048;-71
2024/01/16 13:53:34;;;;;;;0.98;0.70;;;;;;;;;;5076612;28;20043;-71
2024/01/16 13:56:01;;;;;;;1.50;0.70;;;;;;;;;;5082845;28;20073;-71
2024/01/16 13:58:26;;;;;;;1.83;0.70;;;;;;;;;;5075850;28;20036;-71
2024/01/16 14:00:51;;;;;;;1.88;0.70;;;;;;;;;;5064933;28;20051;-71
2024/01/16 14:03:17;;;;;;;1.60;0.68;;;;;;;;;;5085209;28;20527;-71
2024/01/16 14:05:43;;;;;;;1.27;0.60;;;;;;;;;;5085351;28;20032;-71
2024/01/16 14:08:11;;;;;;;2.08;1.13;;;;;;;;;;5058137;28;20560;-71
2024/01/16 14:10:37;;;;;;;0.90;0.60;;;;;;;;;;5050586;28;20052;-71
2024/01/16 14:13:04;;;;;;;1.20;0.47;;;;;;;;;;5076316;28;20568;-71
2024/01/16 14:15:29;;;;;;;1.42;0.75;;;;;;;;;;5084944;28;20058;-72
2024/01/16 14:17:55;;;;;;;1.20;0.60;;;;;;;;;;5067426;28;20016;-71
2024/01/16 14:20:23;;;;;;;2.33;1.08;;;;;;;;;;5039571;28;20121;-72
2024/01/16 14:22:49;;;;;;;1.77;0.70;;;;;;;;;;5054154;28;20062;-71
2024/01/16 14:25:16;;;;;;;1.15;0.40;;;;;;;;;;5055732;28;20020;-71
2024/01/16 14:27:44;;;;;;;2.03;0.63;;;;;;;;;;5080445;28;20020;-71
2024/01/16 14:30:10;;;;;;;1.08;0.60;;;;;;;;;;5076239;28;20032;-71
2024/01/16 14:32:37;;;;;;;0.88;0.50;;;;;;;;;;5070223;28;20027;-71
2024/01/16 14:35:04;;;;;;;1.50;0.70;;;;;;;;;;5074193;28;20104;-71
2024/01/16 14:37:30;;;;;;;1.60;0.57;;;;;;;;;;5068573;28;20483;-71
2024/01/16 14:39:55;;;;;;;1.83;0.73;;;;;;;;;;5069050;28;20082;-70
2024/01/16 14:42:22;;;;;;;1.48;0.80;;;;;;;;;;5085836;28;20020;-71
2024/01/16 14:44:47;;;;;;;1.00;0.50;;;;;;;;;;5056733;28;20125;-70
2024/01/16 14:47:13;;;;;;;1.33;0.60;;;;;;;;;;5079578;28;20428;-71
2024/01/16 14:49:38;;;;;;;1.08;0.70;;;;;;;;;;5071994;28;20086;-70
2024/01/16 14:52:04;;;;;;;1.60;0.80;;;;;;;;;;5084476;28;21164;-70
2024/01/16 14:54:29;;;;;;;1.67;0.70;;;;;;;;;;5082088;28;20040;-72
2024/01/16 14:56:54;;;;;;;1.17;0.60;;;;;;;;;;5089156;28;20489;-71
2024/01/16 14:59:20;;;;;;;1.30;0.75;;;;;;;;;;5078964;28;20044;-71
2024/01/16 15:01:45;;;;;;;1.98;0.75;;;;;;;;;;5082534;28;20073;-70
2024/01/16 15:04:11;;;;;;;0.90;0.43;;;;;;;;;;5074530;28;20036;-71
2024/01/16 15:06:37;;;;;;;1.60;0.70;;;;;;;;;;5082260;28;20039;-71
2024/01/16 15:09:02;;;;;;;1.63;0.70;;;;;;;;;;5084959;28;20043;-71
2024/01/16 15:11:27;;;;;;;1.08;0.60;;;;;;;;;;5080755;28;20117;-71
2024/01/16 15:13:53;;;;;;;0.85;0.40;;;;;;;;;;5089699;28;20063;-71
2024/01/16 15:16:18;;;;;;;1.00;0.60;;;;;;;;;;5089316;28;20050;-71
2024/01/16 15:18:43;;;;;;;0.82;0.50;;;;;;;;;;5083429;28;20159;-71
2024/01/16 15:21:10;;;;;;;1.30;0.60;;;;;;;;;;5085833;28;20098;-71
2024/01/16 15:23:36;;;;;;;1.05;0.60;;;;;;;;;;5056527;28;20032;-71
2024/01/16 15:26:03;;;;;;;1.27;0.65;;;;;;;;;;5082297;28;20032;-71
2024/01/16 15:28:29;;;;;;;1.30;0.63;;;;;;;;;;5073312;28;20028;-71
2024/01/16 15:30:55;;;;;;;1.38;0.77;;;;;;;;;;5054951;28;20047;-71
2024/01/16 15:33:20;;;;;;;1.73;0.80;;;;;;;;;;5085870;28;20032;-71
2024/01/16 15:35:46;;;;;;;0.80;0.40;;;;;;;;;;5085416;28;20040;-72
2024/01/16 15:38:12;;;;;;;1.65;0.65;;;;;;;;;;5079234;28;20036;-71
2024/01/16 15:40:37;;;;;;;0.98;0.55;;;;;;;;;;5081716;28;20032;-72
2024/01/16 15:43:02;;;;;;;1.00;0.65;;;;;;;;;;5079956;28;20472;-71
2024/01/16 15:45:28;;;;;;;1.27;0.65;;;;;;;;;;5053552;28;20044;-71
2024/01/16 15:47:53;;;;;;;0.88;0.47;;;;;;;;;;5079516;28;20035;-71
2024/01/16 15:50:19;;;;;;;0.85;0.60;;;;;;;;;;5060972;28;20118;-71
2024/01/16 15:52:44;;;;;;;1.17;0.60;;;;;;;;;;5069175;28;20479;-71
2024/01/16 15:55:10;;;;;;;1.30;0.50;;;;;;;;;;5062078;28;20060;-72
2024/01/16 15:57:36;;;;;;;1.13;0.50;;;;;;;;;;5063820;28;20040;-72
2024/01/16 16:00:05;;;;;;;1.42;0.73;;;;;;;;;;5049841;28;20578;-73
2024/01/16 16:02:30;;;;;;;1.08;0.45;;;;;;;;;;5064648;28;20499;-71
2024/01/16 16:04:56;;;;;;;1.00;0.52;;;;;;;;;;5068146;28;20044;-71
2024/01/16 16:07:22;;;;;;;1.25;0.60;;;;;;;;;;5070012;28;20364;-71
2024/01/16 16:09:50;;;;;;;1.17;0.70;;;;;;;;;;5067943;28;20533;-71
2024/01/16 16:12:15;;;;;;;1.73;0.70;;;;;;;;;;5063051;28;20028;-72
2024/01/16 16:14:40;;;;;;;1.20;0.63;;;;;;;;;;5056502;28;20040;-71
2024/01/16 16:17:08;;;;;;;0.98;0.50;;;;;;;;;;5038968;28;20044;-71
2024/01/16 16:19:34;;;;;;;1.60;0.70;;;;;;;;;;5079905;28;20094;-72
2024/01/16 16:21:59;;;;;;;1.13;0.60;;;;;;;;;;5056391;28;20048;-71
2024/01/16 16:24:25;;;;;;;1.88;0.85;;;;;;;;;;5073173;28;20085;-70
2024/01/16 16:26:53;;;;;;;1.30;0.70;;;;;;;;;;5077738;28;20473;-71
2024/01/16 16:29:18;;;;;;;2.45;0.60;;;;;;;;;;5043967;28;20100;-72
2024/01/16 16:31:44;;;;;;;1.88;0.80;;;;;;;;;;5060142;28;20039;-70
2024/01/16 16:34:11;;;;;;;1.50;0.70;;;;;;;;;;5079539;28;20097;-72
2024/01/16 16:36:40;;;;;;;0.77;0.50;;;;;;;;;;5081244;28;20039;-72
2024/01/16 16:39:06;;;;;;;1.83;0.70;;;;;;;;;;5084977;28;20104;-70
2024/01/16 16:41:33;;;;;;;3.08;1.67;;;;;;;;;;5085450;28;20538;-72
2024/01/16 16:44:00;;;;;;;4.43;1.80;;;;;;;;;;5067852;28;20119;-71
2024/01/16 16:46:26;;;;;;;6.13;2.50;;;;;;;;;;5081755;28;20141;-72
2024/01/16 16:48:52;;;;;;;5.65;2.15;;;;;;;;;;5078816;28;20051;-71
2024/01/16 16:51:17;;;;;;;4.60;2.13;;;;;;;;;;5077555;28;20499;-71
2024/01/16 16:53:44;;;;;;;4.50;2.10;;;;;;;;;;5075854;28;20032;-71
2024/01/16 16:56:19;;;;;;;3.63;1.70;;;;;;;;;;5078863;28;20476;-70
2024/01/16 16:58:48;;;;;;;3.05;1.63;;;;;;;;;;5077203;28;20036;-71
2024/01/16 17:01:14;;;;;;;5.15;1.35;;;;;;;;;;5043791;28;20032;-72
2024/01/16 17:03:41;;;;;;;3.38;1.55;;;;;;;;;;5080032;28;20076;-70
2024/01/16 17:06:06;;;;;;;2.67;1.50;;;;;;;;;;5076095;28;20060;-72
2024/01/16 17:08:35;;;;;;;2.92;1.20;;;;;;;;;;5078407;28;20070;-71
2024/01/16 17:11:00;;;;;;;5.20;1.50;;;;;;;;;;5079101;28;20032;-72
2024/01/16 17:13:31;;;;;;;3.83;1.38;;;;;;;;;;5076027;28;20035;-73
2024/01/16 17:15:57;;;;;;;3.35;1.33;;;;;;;;;;5079172;28;20031;-72
2024/01/16 17:18:22;;;;;;;5.53;1.55;;;;;;;;;;5076933;28;20036;-72
2024/01/16 17:20:47;;;;;;;2.50;1.15;;;;;;;;;;5076855;28;20463;-72
2024/01/16 17:23:13;;;;;;;2.55;1.30;;;;;;;;;;5079954;28;20050;-72
2024/01/16 17:25:38;;;;;;;5.13;1.45;;;;;;;;;;5077809;28;20036;-72
2024/01/16 17:28:04;;;;;;;4.47;1.15;;;;;;;;;;5072052;28;20028;-73
2024/01/16 17:30:30;;;;;;;5.00;1.90;;;;;;;;;;5055532;28;20036;-72
2024/01/16 17:32:55;;;;;;;3.78;1.50;;;;;;;;;;5073496;28;20410;-71
2024/01/16 17:35:21;;;;;;;2.08;1.08;;;;;;;;;;5076420;28;20040;-71
2024/01/16 17:37:47;;;;;;;2.47;1.20;;;;;;;;;;5078328;28;20529;-73
2024/01/16 17:40:12;;;;;;;2.75;1.05;;;;;;;;;;5078423;28;20016;-71
2024/01/16 17:42:41;;;;;;;3.15;1.38;;;;;;;;;;5060587;28;20093;-73
2024/01/16 17:45:08;;;;;;;3.15;1.15;;;;;;;;;;5075783;28;20032;-72
2024/01/16 17:47:37;;;;;;;3.03;1.20;;;;;;;;;;5079820;28;20036;-71
2024/01/16 17:50:03;;;;;;;3.10;1.20;;;;;;;;;;5080692;28;20483;-71
2024/01/16 17:52:31;;;;;;;2.65;1.38;;;;;;;;;;5083385;28;20039;-72
2024/01/16 17:54:56;;;;;;;2.88;1.40;;;;;;;;;;5081460;28;20475;-73
2024/01/16 17:57:22;;;;;;;2.65;1.08;;;;;;;;;;5082779;28;20032;-73
2024/01/16 17:59:47;;;;;;;3.78;1.13;;;;;;;;;;5080984;28;20260;-72
2024/01/16 18:02:13;;;;;;;2.25;1.08;;;;;;;;;;5081026;28;20024;-72
2024/01/16 18:04:39;;;;;;;2.72;1.25;;;;;;;;;;5082761;28;20100;-71
2024/01/16 18:07:05;;;;;;;3.30;1.20;;;;;;;;;;5080098;28;20028;-73
2024/01/16 18:09:30;;;;;;;3.58;1.20;;;;;;;;;;5077802;28;20056;-75
2024/01/16 18:11:56;;;;;;;2.22;1.10;;;;;;;;;;5081197;28;20068;-73
2024/01/16 18:14:21;;;;;;;3.08;1.05;;;;;;;;;;5064606;28;20034;-71
2024/01/16 18:16:50;;;;;;;2.60;1.20;;;;;;;;;;5080994;28;20031;-72
2024/01/16 18:19:15;;;;;;;2.83;1.35;;;;;;;;;;5081332;28;20075;-73